Time;durP1;ratioP1;P1;durP2;ratioP2;P2;SDS_P1;SDS_P2;PMS_P1;PMS_P2;Temp;Humidity;BMP_temperature;BMP_pressure;BME280_temperature;BME280_humidity;BME280_pressure;Samples;Min_cycle;Max_cycle;Signal;HPM_P1;HPM_P2
2022/09/09 00:02:21;;;;;;;;;19.67;16.67;;;;;19.50;100.00;99302.19;6279769;20;3561926;-60
2022/09/09 00:05:45;;;;;;;;;20.00;20.00;;;;;19.53;100.00;99286.38;6279935;20;2838796;-60
2022/09/09 00:08:47;;;;;;;;;20.00;20.00;;;;;19.53;100.00;99297.25;6276665;20;2840120;-60
2022/09/09 00:11:30;;;;;;;;;19.00;19.00;;;;;19.43;100.00;99296.53;6279221;20;3568069;-61
2022/09/09 00:14:05;;;;;;;;;20.50;20.00;;;;;19.45;100.00;99302.66;6275460;20;2835704;-61
2022/09/09 00:16:42;;;;;;;;;20.00;20.00;;;;;19.34;100.00;99297.50;6276250;20;2843144;-61
2022/09/09 00:19:33;;;;;;;;;20.00;20.00;;;;;19.32;100.00;99293.22;6277951;20;3578354;-61
2022/09/09 00:22:23;;;;;;;;;19.00;19.00;;;;;19.38;100.00;99306.19;6279774;20;3571081;-61
2022/09/09 00:24:56;;;;;;;;;21.00;17.00;;;;;19.22;100.00;99304.19;6276775;20;2835698;-60
2022/09/09 00:27:49;;;;;;;;;19.67;17.67;;;;;19.16;100.00;99299.41;6279015;20;3577455;-60
2022/09/09 00:30:25;;;;;;;;;21.50;19.00;;;;;19.08;100.00;99301.03;6280362;20;2821201;-61
2022/09/09 00:33:01;;;;;;;;;24.00;23.00;;;;;19.08;100.00;99302.91;6287926;20;3581582;-60
2022/09/09 00:35:37;;;;;;;;;23.00;22.00;;;;;18.97;100.00;99293.16;6279643;20;2727401;-60
2022/09/09 00:38:33;;;;;;;;;19.25;17.75;;;;;19.16;100.00;99299.41;6337549;20;3574309;-60
2022/09/09 00:41:17;;;;;;;;;23.67;20.00;;;;;19.11;100.00;99299.03;6315229;20;3588793;-60
2022/09/09 00:44:35;;;;;;;;;23.33;22.00;;;;;19.13;100.00;99284.25;6282757;20;2840145;-61
2022/09/09 00:47:45;;;;;;;;;16.67;16.67;;;;;19.11;100.00;99288.13;6316477;20;3571068;-61
2022/09/09 00:50:55;;;;;;;;;18.00;18.00;;;;;19.02;100.00;99288.09;6281157;20;2837944;-61
2022/09/09 00:54:28;;;;;;;;;16.50;16.50;;;;;18.99;100.00;99282.97;6281880;20;2821129;-61
2022/09/09 00:57:31;;;;;;;;;17.00;17.00;;;;;18.83;100.00;99289.13;6283399;20;3560951;-61
2022/09/09 01:00:24;;;;;;;;;14.00;14.00;;;;;18.81;100.00;99301.19;6320489;20;3535649;-60
2022/09/09 01:03:51;;;;;;;;;12.67;12.67;;;;;18.64;100.00;99301.00;6312230;20;3526260;-61
2022/09/09 01:06:38;;;;;;;;;11.00;11.00;;;;;18.58;100.00;99312.47;6279572;20;3515935;-61
2022/09/09 01:09:33;;;;;;;;;11.33;11.33;;;;;18.67;100.00;99315.28;6313675;20;3512766;-61
2022/09/09 01:12:43;;;;;;;;;13.00;13.00;;;;;18.66;100.00;99330.75;6313304;20;3527429;-61
2022/09/09 01:15:22;;;;;;;;;13.33;12.67;;;;;18.36;100.00;99319.22;6286798;20;2787797;-61
2022/09/09 01:18:14;;;;;;;;;12.67;11.33;;;;;18.46;100.00;99330.06;6312356;20;3514992;-61
2022/09/09 01:21:06;;;;;;;;;11.50;11.50;;;;;18.44;100.00;99326.63;6317513;20;2786897;-61
2022/09/09 01:23:49;;;;;;;;;10.00;10.00;;;;;18.53;100.00;99327.56;6288931;20;2791961;-61
2022/09/09 01:26:43;;;;;;;;;11.00;10.33;;;;;18.50;100.00;99336.03;6285412;20;2792053;-61
2022/09/09 01:29:19;;;;;;;;;8.33;8.33;;;;;18.27;100.00;99338.31;6313888;20;2733658;-61
2022/09/09 01:32:40;;;;;;;;;7.67;7.67;;;;;18.18;100.00;99342.81;6314501;20;2741949;-61
2022/09/09 01:35:39;;;;;;;;;10.80;10.00;;;;;17.99;100.00;99343.75;6335957;20;2791913;-61
2022/09/09 01:38:07;;;;;;;;;7.00;7.00;;;;;17.88;100.00;99343.97;6282757;20;2740930;-61
2022/09/09 01:40:39;;;;;;;;;8.86;7.71;;;;;17.93;100.00;99349.78;6329420;20;3474232;-61
2022/09/09 01:43:08;;;;;;;;;10.00;8.00;;;;;17.81;100.00;99348.28;6314850;20;2767971;-61
2022/09/09 01:45:39;;;;;;;;;6.80;6.80;;;;;17.96;100.00;99349.50;6338785;20;2748426;-62
2022/09/09 01:48:09;;;;;;;;;7.80;7.80;;;;;17.75;100.00;99347.84;6338148;20;2730471;-62
2022/09/09 01:50:38;;;;;;;;;7.00;7.00;;;;;18.13;100.00;99348.69;6337243;20;2746092;-61
2022/09/09 01:53:08;;;;;;;;;8.20;5.40;;;;;18.16;100.00;99329.34;6338761;20;2742002;-61
2022/09/09 01:55:51;;;;;;;;;7.00;7.00;;;;;18.27;100.00;99322.00;6316583;20;2745270;-61
2022/09/09 01:58:59;;;;;;;;;8.00;6.00;;;;;17.89;100.00;99326.66;6310138;20;2741978;-62
2022/09/09 02:02:06;;;;;;;;;7.20;7.20;;;;;17.71;100.00;99324.69;6309366;20;2735694;-61
2022/09/09 02:04:50;;;;;;;;;6.20;6.20;;;;;17.71;100.00;99327.41;6340618;20;2743051;-61
2022/09/09 02:07:48;;;;;;;;;7.40;6.00;;;;;17.72;100.00;99336.41;6336602;20;2745470;-61
2022/09/09 02:11:05;;;;;;;;;7.00;7.00;;;;;17.65;100.00;99347.00;6355435;20;3454515;-62
2022/09/09 02:13:37;;;;;;;;;6.80;5.40;;;;;17.58;100.00;99335.03;6334946;20;2739978;-61
2022/09/09 02:16:34;;;;;;;;;8.60;6.80;;;;;17.61;100.00;99334.72;6338771;20;2737758;-61
2022/09/09 02:19:25;;;;;;;;;7.80;6.80;;;;;17.51;100.00;99340.19;6338385;20;2736825;-62
2022/09/09 02:21:59;;;;;;;;;7.40;7.40;;;;;17.51;100.00;99344.78;6339038;20;2745194;-61
2022/09/09 02:24:36;;;;;;;;;6.20;5.20;;;;;17.58;100.00;99350.47;6341008;20;2739831;-61
2022/09/09 02:27:09;;;;;;;;;6.00;6.00;;;;;17.62;100.00;99354.59;6336370;20;2738890;-61
2022/09/09 02:29:42;;;;;;;;;6.40;6.40;;;;;17.40;100.00;99344.94;6338688;20;2744096;-61
2022/09/09 02:32:23;;;;;;;;;6.71;6.71;;;;;17.44;100.00;99349.06;6354048;20;3457716;-61
2022/09/09 02:35:05;;;;;;;;;6.80;6.80;;;;;17.52;100.00;99346.47;6334920;20;2744002;-61
2022/09/09 02:37:39;;;;;;;;;7.00;6.75;;;;;17.20;100.00;99342.28;6337284;20;2051343;-61
2022/09/09 02:40:11;;;;;;;;;8.50;6.00;;;;;17.20;100.00;99344.13;6321655;20;2737758;-61
2022/09/09 02:42:45;;;;;;;;;8.40;7.00;;;;;17.26;100.00;99341.69;6306616;20;2746160;-62
2022/09/09 02:45:28;;;;;;;;;4.80;4.80;;;;;17.38;100.00;99339.66;6336975;20;2740957;-62
2022/09/09 02:48:16;;;;;;;;;7.00;7.00;;;;;17.27;100.00;99340.69;6335226;20;2744036;-61
2022/09/09 02:51:08;;;;;;;;;5.60;5.60;;;;;17.19;100.00;99339.69;6334314;20;2741982;-61
2022/09/09 02:54:36;;;;;;;;;9.00;6.00;;;;;17.27;100.00;99346.13;6312895;20;2733628;-61
2022/09/09 02:57:14;;;;;;;;;7.00;6.00;;;;;17.21;100.00;99346.69;6287763;20;2736734;-61
2022/09/09 02:59:45;;;;;;;;;4.80;4.60;;;;;17.13;100.00;99346.56;6305024;20;2739953;-61
2022/09/09 03:02:13;;;;;;;;;7.00;4.00;;;;;17.00;100.00;99346.00;6314753;20;2748307;-61
2022/09/09 03:04:44;;;;;;;;;5.50;5.50;;;;;17.00;100.00;99352.28;6284254;20;2748171;-50
2022/09/09 03:07:13;;;;;;;;;8.60;5.20;;;;;17.06;100.00;99350.84;6308235;20;2736708;-51
2022/09/09 03:09:45;;;;;;;;;6.14;6.14;;;;;17.10;100.00;99352.28;6358907;20;3452813;-53
2022/09/09 03:12:13;;;;;;;;;6.00;6.00;;;;;17.14;100.00;99353.72;6315927;20;2739823;-53
2022/09/09 03:14:41;;;;;;;;;7.50;7.50;;;;;17.17;100.00;99350.69;6286203;20;2743089;-52
2022/09/09 03:17:10;;;;;;;;;7.00;7.00;;;;;17.11;100.00;99345.84;6306945;20;2734741;-49
2022/09/09 03:19:39;;;;;;;;;6.80;6.80;;;;;16.92;100.00;99337.72;6339232;20;2744049;-53
2022/09/09 03:22:11;;;;;;;;;7.00;7.00;;;;;16.98;100.00;99348.00;6316371;20;2741959;-53
2022/09/09 03:24:38;;;;;;;;;6.50;6.50;;;;;16.86;100.00;99355.44;6288474;20;2736710;-54
2022/09/09 03:27:06;;;;;;;;;8.00;8.00;;;;;17.01;100.00;99343.16;6286546;20;2731755;-51
2022/09/09 03:29:34;;;;;;;;;7.00;5.00;;;;;17.09;100.00;99350.56;6287494;20;2739937;-47
2022/09/09 03:32:05;;;;;;;;;6.67;6.67;;;;;17.29;100.00;99346.81;6329368;20;1796890;-52
2022/09/09 03:34:35;;;;;;;;;6.40;5.40;;;;;17.44;100.00;99346.38;6336883;20;2734749;-53
2022/09/09 03:37:05;;;;;;;;;8.00;5.40;;;;;17.26;100.00;99344.38;6336293;20;2740939;-53
2022/09/09 03:39:34;;;;;;;;;5.00;5.00;;;;;17.07;100.00;99344.44;6334958;20;2745082;-55
2022/09/09 03:42:05;;;;;;;;;5.20;5.20;;;;;17.06;100.00;99340.88;6336431;20;2743042;-54
2022/09/09 03:44:34;;;;;;;;;5.00;5.00;;;;;17.06;100.00;99339.97;6335479;20;2740921;-52
2022/09/09 03:47:02;;;;;;;;;6.00;6.00;;;;;17.08;100.00;99333.41;6312571;20;2742015;-50
2022/09/09 03:49:30;;;;;;;;;5.00;5.00;;;;;16.96;100.00;99331.03;6287035;20;2741935;-50
2022/09/09 03:51:58;;;;;;;;;5.00;5.00;;;;;16.84;100.00;99328.44;6280859;20;2748162;-51
2022/09/09 03:54:27;;;;;;;;;5.00;5.00;;;;;16.87;100.00;99333.56;6285213;20;2734883;-53
2022/09/09 03:56:54;;;;;;;;;6.00;4.50;;;;;17.06;100.00;99323.72;6286805;20;2747189;-49
2022/09/09 03:59:22;;;;;;;;;3.50;3.00;;;;;17.08;100.00;99330.69;6286722;20;2751293;-49
2022/09/09 04:01:51;;;;;;;;;3.00;3.00;;;;;17.04;100.00;99331.16;6284333;20;2747638;-52
2022/09/09 04:04:19;;;;;;;;;3.00;3.00;;;;;17.01;100.00;99336.84;6287749;20;2739973;-55
2022/09/09 04:06:51;;;;;;;;;6.00;4.50;;;;;17.09;100.00;99345.16;6292534;20;2748305;-54
2022/09/09 04:09:18;;;;;;;;;5.00;5.00;;;;;16.89;100.00;99345.13;6288524;20;2749206;-56
2022/09/09 04:11:46;;;;;;;;;3.50;3.50;;;;;16.97;100.00;99354.44;6291568;20;2740994;-55
2022/09/09 04:14:13;;;;;;;;;4.00;4.00;;;;;16.94;100.00;99341.16;6286044;20;2754482;-55
2022/09/09 04:16:44;;;;;;;;;3.80;3.80;;;;;17.10;100.00;99342.28;6311200;20;2755456;-54
2022/09/09 04:19:14;;;;;;;;;3.00;3.00;;;;;16.80;100.00;99350.59;6287460;20;2746095;-52
2022/09/09 04:21:42;;;;;;;;;4.00;4.00;;;;;16.92;100.00;99352.13;6292117;20;2747121;-53
2022/09/09 04:24:10;;;;;;;;;4.00;3.00;;;;;16.96;100.00;99353.56;6291160;20;2744015;-53
2022/09/09 04:26:38;;;;;;;;;4.00;4.00;;;;;17.05;100.00;99355.41;6289323;20;2746124;-51
2022/09/09 04:29:07;;;;;;;;;5.00;4.00;;;;;16.81;100.00;99368.56;6289331;20;2751519;-51
2022/09/09 04:31:35;;;;;;;;;5.00;5.00;;;;;16.79;100.00;99365.13;6288414;20;2738795;-51
2022/09/09 04:34:05;;;;;;;;;4.00;4.00;;;;;16.67;100.00;99361.69;6291602;20;2750259;-55
2022/09/09 04:36:33;;;;;;;;;5.50;5.50;;;;;16.65;100.00;99358.25;6290395;20;2737144;-53
2022/09/09 04:39:01;;;;;;;;;4.00;4.00;;;;;16.59;100.00;99358.81;6288931;20;2753404;-54
2022/09/09 04:41:31;;;;;;;;;8.00;5.50;;;;;16.76;100.00;99368.94;6290723;20;2739931;-54
2022/09/09 04:44:00;;;;;;;;;6.50;6.50;;;;;16.72;100.00;99362.09;6284465;20;2739832;-52
2022/09/09 04:46:30;;;;;;;;;5.40;5.40;;;;;16.69;100.00;99375.91;6312384;20;2744071;-55
2022/09/09 04:48:59;;;;;;;;;7.60;6.00;;;;;16.79;100.00;99367.84;6339191;20;2730960;-53
2022/09/09 04:51:31;;;;;;;;;5.00;5.00;;;;;16.85;100.00;99370.84;6341495;20;2737797;-56
2022/09/09 04:53:58;;;;;;;;;5.50;5.50;;;;;16.94;100.00;99366.41;6318014;20;2737777;-53
2022/09/09 04:56:28;;;;;;;;;6.80;6.00;;;;;16.89;100.00;99377.69;6311702;20;2738843;-50
2022/09/09 04:58:57;;;;;;;;;4.00;3.20;;;;;16.88;100.00;99365.13;6338521;20;2752358;-55
2022/09/09 05:01:26;;;;;;;;;6.00;5.00;;;;;16.99;100.00;99363.28;6319430;20;2747126;-52
2022/09/09 05:03:54;;;;;;;;;4.00;4.00;;;;;16.93;100.00;99367.44;6289052;20;2756527;-56
2022/09/09 05:06:23;;;;;;;;;4.00;4.00;;;;;17.01;100.00;99359.44;6288946;20;2750282;-55
2022/09/09 05:08:54;;;;;;;;;2.00;2.00;;;;;17.09;100.00;99361.44;6329023;20;3479394;-51
2022/09/09 05:11:29;;;;;;;;;5.50;4.00;;;;;17.02;100.00;99360.28;6316542;20;2756509;-54
2022/09/09 05:13:57;;;;;;;;;3.00;3.00;;;;;16.95;100.00;99372.69;6286800;20;2727396;-53
2022/09/09 05:16:25;;;;;;;;;4.00;2.00;;;;;17.13;100.00;99379.09;6287160;20;2739865;-52
2022/09/09 05:18:53;;;;;;;;;3.00;3.00;;;;;17.12;100.00;99380.13;6287430;20;2747151;-52
2022/09/09 05:21:26;;;;;;;;;2.00;2.00;;;;;17.12;100.00;99377.41;6291015;20;2759728;-53
2022/09/09 05:23:53;;;;;;;;;4.00;4.00;;;;;16.94;100.00;99379.13;6288520;20;2741924;-54
2022/09/09 05:26:23;;;;;;;;;2.00;2.00;;;;;17.08;100.00;99368.69;6287524;20;2748309;-56
2022/09/09 05:28:51;;;;;;;;;5.00;3.50;;;;;17.19;100.00;99372.25;6285995;20;2750332;-51
2022/09/09 05:31:20;;;;;;;;;3.00;3.00;;;;;17.12;100.00;99374.69;6284504;20;2737865;-53
2022/09/09 05:33:51;;;;;;;;;3.00;3.00;;;;;17.09;100.00;99377.69;6288926;20;2752392;-50
2022/09/09 05:36:22;;;;;;;;;3.00;3.00;;;;;17.29;100.00;99379.38;6287963;20;2739835;-55
2022/09/09 05:38:50;;;;;;;;;4.50;3.00;;;;;17.28;100.00;99383.09;6288099;20;2741915;-56
2022/09/09 05:41:19;;;;;;;;;4.00;4.00;;;;;17.32;100.00;99384.53;6287814;20;2752449;-54
2022/09/09 05:43:48;;;;;;;;;4.00;4.00;;;;;17.32;100.00;99376.41;6285538;20;2740077;-53
2022/09/09 05:46:23;;;;;;;;;3.00;3.00;;;;;17.24;100.00;99381.66;6288864;20;2755502;-51
2022/09/09 05:48:53;;;;;;;;;3.00;3.00;;;;;17.36;100.00;99384.25;6286796;20;2738921;-53
2022/09/09 05:51:26;;;;;;;;;4.67;2.33;;;;;17.34;100.00;99378.94;6288838;20;2752328;-52
2022/09/09 05:54:00;;;;;;;;;5.00;3.00;;;;;17.57;100.00;99387.63;6317394;20;2740860;-54
2022/09/09 05:56:29;;;;;;;;;4.00;3.00;;;;;18.59;100.00;99394.94;6289461;20;2756554;-54
2022/09/09 05:58:59;;;;;;;;;3.00;3.00;;;;;18.31;100.00;99392.22;6314943;20;2744160;-55
2022/09/09 06:01:35;;;;;;;;;4.67;3.00;;;;;18.43;100.00;99388.31;6288608;20;2748226;-53
2022/09/09 06:04:06;;;;;;;;;6.00;3.00;;;;;18.93;100.00;99389.72;6340563;20;2745042;-55
2022/09/09 06:06:39;;;;;;;;;2.00;2.00;;;;;18.93;100.00;99395.16;6288489;20;2746101;-51
2022/09/09 06:09:10;;;;;;;;;2.00;2.00;;;;;19.82;100.00;99396.88;6313081;20;2744144;-55
2022/09/09 06:11:40;;;;;;;;;4.00;4.00;;;;;20.82;92.61;99406.19;6318804;20;2744098;-52
2022/09/09 06:14:10;;;;;;;;;3.67;3.67;;;;;22.57;83.52;99410.31;6313311;20;2751573;-57
2022/09/09 06:16:38;;;;;;;;;3.00;3.00;;;;;23.40;78.18;99406.00;6315703;20;2739939;-55
2022/09/09 06:19:08;;;;;;;;;3.00;3.00;;;;;21.61;85.97;99409.34;6339306;20;2731554;-56
2022/09/09 06:21:38;;;;;;;;;5.00;3.00;;;;;21.41;88.61;99408.88;6319397;20;2739841;-54
2022/09/09 06:24:07;;;;;;;;;2.00;2.00;;;;;22.85;80.54;99421.59;6318453;20;2730622;-56
2022/09/09 06:26:42;;;;;;;;;4.60;3.20;;;;;21.56;86.90;99422.66;6340130;20;2756736;-52
2022/09/09 06:29:12;;;;;;;;;4.00;2.60;;;;;23.26;80.46;99410.41;6305975;20;2737782;-55
2022/09/09 06:31:42;;;;;;;;;2.00;2.00;;;;;24.32;77.43;99406.63;6344909;20;2743042;-58
2022/09/09 06:34:11;;;;;;;;;2.40;2.40;;;;;26.09;68.17;99410.84;6334503;20;2735655;-59
2022/09/09 06:36:41;;;;;;;;;2.80;2.80;;;;;26.28;65.18;99418.38;6342877;20;2741953;-58
2022/09/09 06:39:11;;;;;;;;;3.00;3.00;;;;;23.68;74.58;99403.53;6343044;20;2733696;-58
2022/09/09 06:41:43;;;;;;;;;3.80;3.00;;;;;21.72;83.92;99397.19;6340407;20;2744085;-58
2022/09/09 06:44:12;;;;;;;;;3.80;2.00;;;;;21.26;88.81;99396.88;6310814;20;2738972;-59
2022/09/09 06:46:41;;;;;;;;;1.00;1.00;;;;;20.67;91.08;99396.97;6322377;20;2731611;-58
2022/09/09 06:49:10;;;;;;;;;2.20;2.20;;;;;20.72;94.20;99402.78;6342284;20;2744025;-59
2022/09/09 06:51:43;;;;;;;;;3.80;3.80;;;;;20.76;94.00;99411.47;6342057;20;2750253;-59
2022/09/09 06:54:13;;;;;;;;;3.00;3.00;;;;;20.58;93.90;99411.59;6309516;20;2735678;-59
2022/09/09 06:56:44;;;;;;;;;3.80;2.40;;;;;20.62;92.89;99412.97;6340458;20;2756546;-59
2022/09/09 06:59:14;;;;;;;;;3.80;3.80;;;;;20.38;95.59;99417.28;6321634;20;2754510;-59
2022/09/09 07:01:44;;;;;;;;;3.00;3.00;;;;;20.35;95.36;99428.53;6310410;20;2745058;-60
2022/09/09 07:04:13;;;;;;;;;2.67;2.67;;;;;20.45;94.64;99424.81;6318857;20;2732565;-58
2022/09/09 07:06:46;;;;;;;;;2.60;2.60;;;;;20.60;93.98;99421.31;6344747;20;2744056;-58
2022/09/09 07:09:16;;;;;;;;;4.00;2.67;;;;;20.78;93.92;99421.22;6318216;20;2734835;-58
2022/09/09 07:11:52;;;;;;;;;3.00;3.00;;;;;21.11;91.93;99423.13;6339439;20;2754413;-57
2022/09/09 07:14:22;;;;;;;;;2.00;2.00;;;;;21.02;92.12;99434.06;6309683;20;2756496;-58
2022/09/09 07:16:53;;;;;;;;;3.29;3.29;;;;;21.01;92.31;99431.47;6327096;20;3459637;-59
2022/09/09 07:19:27;;;;;;;;;3.00;3.00;;;;;20.92;90.00;99432.50;6341408;20;1905749;-64
2022/09/09 07:21:55;;;;;;;;;3.00;3.00;;;;;20.96;90.57;99428.44;6287654;20;2731543;-65
2022/09/09 07:24:24;;;;;;;;;2.00;2.00;;;;;20.71;89.97;99431.06;6317238;20;2748178;-61
2022/09/09 07:26:52;;;;;;;;;3.00;3.00;;;;;20.86;90.38;99435.91;6321711;20;2724601;-62
2022/09/09 07:29:20;;;;;;;;;3.00;3.00;;;;;21.19;89.11;99443.09;6319696;20;2733603;-62
2022/09/09 07:31:49;;;;;;;;;2.00;2.00;;;;;21.32;85.49;99442.63;6319863;20;2750320;-63
2022/09/09 07:34:18;;;;;;;;;3.40;2.60;;;;;21.74;83.40;99440.78;6341650;20;2745043;-64
2022/09/09 07:36:48;;;;;;;;;2.00;2.00;;;;;22.01;81.49;99445.88;6340912;20;2752382;-62
2022/09/09 07:39:18;;;;;;;;;3.00;3.00;;;;;22.21;80.69;99440.03;6308762;20;2735706;-64
2022/09/09 07:41:49;;;;;;;;;2.00;2.00;;;;;22.27;78.99;99436.59;6339745;20;2744037;-62
2022/09/09 07:44:24;;;;;;;;;2.50;2.50;;;;;22.43;80.57;99436.50;6341482;20;2742052;-63
2022/09/09 07:46:56;;;;;;;;;1.00;1.00;;;;;21.81;81.39;99441.78;6287943;20;2734785;-62
2022/09/09 07:49:25;;;;;;;;;1.60;1.60;;;;;21.32;83.95;99436.31;6339589;20;2741934;-58
2022/09/09 07:52:01;;;;;;;;;2.00;2.00;;;;;21.54;83.74;99440.25;6339794;20;2740890;-58
2022/09/09 07:54:32;;;;;;;;;3.00;2.20;;;;;22.07;82.98;99444.31;6343015;20;2749232;-59
2022/09/09 07:57:03;;;;;;;;;3.00;3.00;;;;;22.90;81.28;99454.78;6306809;20;2723185;-58
2022/09/09 07:59:33;;;;;;;;;2.20;2.20;;;;;22.92;78.20;99458.19;6340406;20;2734760;-56
2022/09/09 08:02:02;;;;;;;;;2.20;2.20;;;;;22.76;77.90;99452.81;6339275;20;2744043;-56
2022/09/09 08:04:32;;;;;;;;;1.40;1.40;;;;;23.00;79.11;99452.69;6306670;20;2744094;-58
2022/09/09 08:07:03;;;;;;;;;2.00;2.00;;;;;23.36;76.49;99443.91;6318991;20;2744139;-57
2022/09/09 08:09:33;;;;;;;;;4.00;3.60;;;;;22.92;77.26;99446.38;6340311;20;2754575;-55
2022/09/09 08:12:03;;;;;;;;;2.00;2.00;;;;;23.06;77.39;99442.91;6311611;20;2739849;-58
2022/09/09 08:14:33;;;;;;;;;1.80;1.80;;;;;22.94;76.62;99447.06;6341203;20;2739851;-59
2022/09/09 08:17:02;;;;;;;;;3.60;2.40;;;;;23.50;76.18;99444.97;6309499;20;2750319;-58
2022/09/09 08:19:35;;;;;;;;;2.00;2.00;;;;;23.45;75.43;99445.53;6308462;20;2744066;-58
2022/09/09 08:22:04;;;;;;;;;2.00;2.00;;;;;23.71;73.28;99446.19;6290047;20;2736796;-58
2022/09/09 08:24:34;;;;;;;;;4.00;2.00;;;;;23.49;73.95;99442.44;6334948;20;2755543;-58
2022/09/09 08:27:03;;;;;;;;;5.00;2.60;;;;;23.77;73.94;99443.56;6308819;20;2735866;-56
2022/09/09 08:29:33;;;;;;;;;1.80;1.80;;;;;23.72;73.92;99437.78;6344090;20;2723182;-58
2022/09/09 08:32:03;;;;;;;;;3.60;3.00;;;;;23.90;74.88;99442.09;6341138;20;2741925;-59
2022/09/09 08:34:33;;;;;;;;;1.00;1.00;;;;;23.62;73.91;99442.69;6340990;20;2054526;-59
2022/09/09 08:37:03;;;;;;;;;2.00;2.00;;;;;23.64;74.60;99443.31;6339671;20;2748172;-59
2022/09/09 08:39:33;;;;;;;;;3.20;1.60;;;;;23.92;74.29;99438.13;6308671;20;2740868;-59
2022/09/09 08:42:21;;;;;;;;;2.00;2.00;;;;;23.82;73.60;99437.53;6311204;20;2753378;-59
2022/09/09 08:45:39;;;;;;;;;1.80;1.80;;;;;24.12;72.09;99437.56;6309047;20;2731504;-59
2022/09/09 08:49:23;;;;;;;;;2.20;2.20;;;;;24.26;73.21;99437.59;6336464;20;2746283;-59
2022/09/09 08:51:57;;;;;;;;;3.00;3.00;;;;;24.47;72.63;99453.31;6311462;20;2734634;-59
2022/09/09 08:54:33;;;;;;;;;1.00;1.00;;;;;23.93;72.00;99455.44;6342978;20;2740414;-59
2022/09/09 08:57:26;;;;;;;;;3.00;3.00;;;;;24.14;69.91;99450.06;6311395;20;2723217;-58
2022/09/09 08:59:57;;;;;;;;;2.80;2.80;;;;;24.41;70.76;99453.19;6345207;20;2731488;-58
2022/09/09 09:03:15;;;;;;;;;3.20;1.80;;;;;24.12;71.22;99448.53;6342179;20;2746119;-59
2022/09/09 09:06:15;;;;;;;;;3.00;2.00;;;;;24.59;71.26;99456.44;6312130;20;2737746;-58
2022/09/09 09:09:21;;;;;;;;;2.00;2.00;;;;;24.16;70.98;99449.88;6342980;20;2744004;-58
2022/09/09 09:12:01;;;;;;;;;1.80;1.80;;;;;24.33;70.22;99445.94;6312216;20;2733639;-58
2022/09/09 09:14:35;;;;;;;;;1.00;1.00;;;;;24.85;70.79;99455.06;6343477;20;2731548;-59
2022/09/09 09:17:13;;;;;;;;;2.40;2.40;;;;;24.92;67.33;99434.88;6342319;20;2741945;-58
2022/09/09 09:19:43;;;;;;;;;2.40;2.40;;;;;24.88;69.54;99443.69;6314450;20;2732660;-56
2022/09/09 09:22:51;;;;;;;;;1.60;1.60;;;;;24.64;69.15;99442.97;6343507;20;2731512;-58
2022/09/09 09:25:30;;;;;;;;;1.60;1.60;;;;;24.68;69.06;99443.47;6345930;20;2739832;-59
2022/09/09 09:28:25;;;;;;;;;1.40;1.40;;;;;24.71;68.68;99432.09;6310540;20;2726969;-56
2022/09/09 09:31:04;;;;;;;;;0.00;0.00;;;;;24.40;68.96;99435.03;6346850;20;2727378;-57
2022/09/09 09:33:53;;;;;;;;;2.00;2.00;;;;;25.07;66.89;99448.59;6344502;20;2723167;-58
2022/09/09 09:36:42;;;;;;;;;1.80;1.80;;;;;24.73;67.47;99441.00;6343060;20;2737887;-58
2022/09/09 09:39:30;;;;;;;;;1.00;1.00;;;;;24.80;67.17;99441.06;6340174;20;2750271;-59
2022/09/09 09:42:20;;;;;;;;;1.60;1.60;;;;;25.25;65.88;99431.69;6313172;20;2737794;-58
2022/09/09 09:44:53;;;;;;;;;2.60;2.00;;;;;25.57;65.26;99434.97;6308084;20;2744413;-58
2022/09/09 09:47:23;;;;;;;;;1.00;1.00;;;;;25.26;64.30;99433.38;6312631;20;2724227;-59
2022/09/09 09:49:59;;;;;;;;;0.60;0.60;;;;;25.08;64.84;99433.78;6345969;20;2728401;-58
2022/09/09 09:52:32;;;;;;;;;1.00;1.00;;;;;25.04;64.53;99435.25;6344324;20;2741995;-58
2022/09/09 09:55:07;;;;;;;;;2.00;2.00;;;;;25.35;64.72;99436.84;6312882;20;2735783;-58
2022/09/09 09:57:37;;;;;;;;;2.80;1.00;;;;;25.29;63.74;99444.00;6305685;20;2726425;-59
2022/09/09 10:00:20;;;;;;;;;2.40;2.40;;;;;24.92;64.83;99434.03;6341363;20;2748256;-58
2022/09/09 10:02:52;;;;;;;;;1.00;1.00;;;;;25.61;63.49;99439.84;6311729;20;2738826;-59
2022/09/09 10:05:26;;;;;;;;;1.20;1.20;;;;;25.51;64.20;99438.47;6341679;20;2728374;-58
2022/09/09 10:08:13;;;;;;;;;3.60;2.60;;;;;25.45;65.10;99426.38;6340945;20;2738871;-59
2022/09/09 10:11:06;;;;;;;;;2.00;2.00;;;;;25.44;65.61;99424.69;6312117;20;2734627;-59
2022/09/09 10:14:12;;;;;;;;;1.00;1.00;;;;;25.61;65.95;99419.75;6343720;20;2732538;-59
2022/09/09 10:17:14;;;;;;;;;3.40;1.40;;;;;25.56;64.58;99423.09;6341071;20;2749328;-56
2022/09/09 10:20:26;;;;;;;;;1.80;1.80;;;;;26.32;63.65;99430.66;6311126;20;2746111;-58
2022/09/09 10:23:43;;;;;;;;;0.67;0.67;;;;;25.70;63.95;99432.31;6289875;20;2730506;-57
2022/09/09 10:26:47;;;;;;;;;1.60;1.60;;;;;25.98;63.14;99432.34;6343181;20;2746170;-57
2022/09/09 10:30:04;;;;;;;;;3.00;3.00;;;;;26.04;63.16;99434.31;6308315;20;2756546;-57
2022/09/09 10:33:09;;;;;;;;;2.20;2.20;;;;;26.35;63.07;99441.25;6305738;20;2748190;-58
2022/09/09 10:36:23;;;;;;;;;2.40;2.00;;;;;26.35;61.74;99446.78;6307651;20;2746177;-54
2022/09/09 10:39:35;;;;;;;;;3.80;2.40;;;;;26.02;63.43;99433.66;6305235;20;2745106;-58
2022/09/09 10:42:16;;;;;;;;;2.40;2.40;;;;;25.88;62.31;99428.25;6310249;20;2725283;-55
2022/09/09 10:45:21;;;;;;;;;2.20;1.00;;;;;26.37;62.97;99425.41;6341822;20;2744055;-59
2022/09/09 10:48:26;;;;;;;;;3.20;1.80;;;;;25.76;63.03;99425.19;6306582;20;2735742;-54
2022/09/09 10:51:33;;;;;;;;;2.20;2.20;;;;;26.12;64.47;99424.19;6308389;20;2742374;-59
2022/09/09 10:54:53;;;;;;;;;1.40;1.40;;;;;25.96;61.40;99420.72;6307844;20;2743998;-58
2022/09/09 10:57:52;;;;;;;;;1.00;1.00;;;;;26.17;61.79;99417.03;6308733;20;2744027;-60
2022/09/09 11:00:46;;;;;;;;;5.40;2.00;;;;;26.46;64.22;99412.31;6311549;20;2745148;-57
2022/09/09 11:03:26;;;;;;;;;2.00;2.00;;;;;26.74;62.09;99417.78;6310239;20;2740956;-58
2022/09/09 11:06:19;;;;;;;;;3.20;3.20;;;;;26.80;60.17;99416.09;6341187;20;2754452;-59
2022/09/09 11:08:49;;;;;;;;;1.60;1.60;;;;;26.49;60.16;99417.44;6304932;20;2752387;-58
2022/09/09 11:11:58;;;;;;;;;2.00;2.00;;;;;26.84;60.09;99418.25;6307486;20;2752325;-60
2022/09/09 11:14:51;;;;;;;;;2.40;1.40;;;;;26.88;59.63;99430.56;6311371;20;2743986;-61
2022/09/09 11:17:46;;;;;;;;;1.40;1.40;;;;;27.11;59.37;99423.81;6307369;20;2729492;-64
2022/09/09 11:20:16;;;;;;;;;2.00;2.00;;;;;27.43;58.44;99424.13;6339726;20;2740893;-65
2022/09/09 11:23:04;;;;;;;;;5.80;3.00;;;;;27.00;60.56;99421.69;6305162;20;2750244;-66
2022/09/09 11:25:44;;;;;;;;;3.40;2.20;;;;;26.79;59.40;99420.75;6308389;20;2729432;-64
2022/09/09 11:29:14;;;;;;;;;3.60;3.60;;;;;26.54;62.05;99420.47;6338367;20;2739905;-63
2022/09/09 11:32:17;;;;;;;;;2.00;2.00;;;;;26.47;57.76;99417.63;6305940;20;2725386;-63
2022/09/09 11:35:14;;;;;;;;;1.60;1.60;;;;;26.59;59.05;99419.81;6342881;20;2729421;-66
2022/09/09 11:38:11;;;;;;;;;2.00;2.00;;;;;26.97;59.04;99422.09;6310260;20;2752349;-67
2022/09/09 11:40:41;;;;;;;;;2.40;2.40;;;;;27.18;57.49;99419.22;6309406;20;2743078;-65
2022/09/09 11:43:24;;;;;;;;;2.00;2.00;;;;;26.95;58.13;99424.22;6309382;20;2744105;-63
2022/09/09 11:46:02;;;;;;;;;1.80;1.80;;;;;27.08;58.97;99424.25;6295799;20;2724352;-63
2022/09/09 11:48:39;;;;;;;;;2.00;2.00;;;;;27.42;56.65;99420.53;6334916;20;2731508;-62
2022/09/09 11:51:26;;;;;;;;;2.67;2.67;;;;;27.35;57.17;99420.50;6314783;20;2731567;-62
2022/09/09 11:54:29;;;;;;;;;1.20;1.20;;;;;26.96;58.72;99406.59;6338075;20;2741925;-63
2022/09/09 11:56:59;;;;;;;;;3.00;3.00;;;;;27.32;58.19;99407.13;6305844;20;2737883;-63
2022/09/09 11:59:32;;;;;;;;;2.40;2.40;;;;;26.89;58.05;99410.19;6338270;20;2752378;-62
2022/09/09 12:02:24;;;;;;;;;2.40;2.40;;;;;26.66;57.48;99404.19;6311417;20;2752385;-61
2022/09/09 12:05:09;;;;;;;;;1.00;1.00;;;;;27.19;56.64;99407.13;6309010;20;2744004;-61
2022/09/09 12:07:47;;;;;;;;;2.40;2.40;;;;;26.83;58.01;99400.03;6308067;20;2735742;-60
2022/09/09 12:10:36;;;;;;;;;2.40;2.40;;;;;26.85;56.84;99399.78;6336016;20;2741996;-62